sensor_id;sensor_type;location;lat;lon;timestamp;P1;durP1;ratioP1;P2;durP2;ratioP2
49029;SDS011;43337;52.070;4.508;2024-03-02T00:00:22;1.58;;;0.60;;
49029;SDS011;43337;52.070;4.508;2024-03-02T00:02:49;3.25;;;0.88;;
49029;SDS011;43337;52.070;4.508;2024-03-02T00:05:19;2.20;;;0.30;;
49029;SDS011;43337;52.070;4.508;2024-03-02T00:07:54;2.78;;;0.38;;
49029;SDS011;43337;52.070;4.508;2024-03-02T00:10:27;1.50;;;0.35;;
49029;SDS011;43337;52.070;4.508;2024-03-02T00:13:02;1.25;;;0.43;;
49029;SDS011;43337;52.070;4.508;2024-03-02T00:20:49;2.67;;;0.32;;
49029;SDS011;43337;52.070;4.508;2024-03-02T00:23:22;0.95;;;0.30;;
49029;SDS011;43337;52.070;4.508;2024-03-02T00:25:48;1.92;;;0.93;;
49029;SDS011;43337;52.070;4.508;2024-03-02T00:28:24;1.80;;;0.30;;
49029;SDS011;43337;52.070;4.508;2024-03-02T00:30:55;0.80;;;0.30;;
49029;SDS011;43337;52.070;4.508;2024-03-02T00:33:21;1.50;;;0.52;;
49029;SDS011;43337;52.070;4.508;2024-03-02T00:35:47;2.20;;;0.50;;
49029;SDS011;43337;52.070;4.508;2024-03-02T00:38:15;1.50;;;0.50;;
49029;SDS011;43337;52.070;4.508;2024-03-02T00:40:41;1.67;;;0.50;;
49029;SDS011;43337;52.070;4.508;2024-03-02T00:43:23;1.40;;;0.65;;
49029;SDS011;43337;52.070;4.508;2024-03-02T00:46:05;1.48;;;0.40;;
49029;SDS011;43337;52.070;4.508;2024-03-02T00:48:31;2.17;;;0.35;;
49029;SDS011;43337;52.070;4.508;2024-03-02T00:50:56;1.48;;;0.40;;
49029;SDS011;43337;52.070;4.508;2024-03-02T00:53:23;1.35;;;0.45;;
49029;SDS011;43337;52.070;4.508;2024-03-02T00:55:51;1.27;;;0.63;;
49029;SDS011;43337;52.070;4.508;2024-03-02T00:58:17;2.67;;;0.45;;
49029;SDS011;43337;52.070;4.508;2024-03-02T01:00:42;1.48;;;0.47;;
49029;SDS011;43337;52.070;4.508;2024-03-02T01:03:07;1.30;;;0.40;;
49029;SDS011;43337;52.070;4.508;2024-03-02T01:05:33;1.25;;;0.43;;
49029;SDS011;43337;52.070;4.508;2024-03-02T01:07:59;1.55;;;0.50;;
49029;SDS011;43337;52.070;4.508;2024-03-02T01:10:25;2.38;;;0.38;;
49029;SDS011;43337;52.070;4.508;2024-03-02T01:12:51;0.95;;;0.45;;
49029;SDS011;43337;52.070;4.508;2024-03-02T01:15:17;1.35;;;0.88;;
49029;SDS011;43337;52.070;4.508;2024-03-02T01:17:42;1.02;;;0.40;;
49029;SDS011;43337;52.070;4.508;2024-03-02T01:20:08;1.88;;;0.90;;
49029;SDS011;43337;52.070;4.508;2024-03-02T01:22:34;1.42;;;0.30;;
49029;SDS011;43337;52.070;4.508;2024-03-02T01:25:00;1.38;;;0.45;;
49029;SDS011;43337;52.070;4.508;2024-03-02T01:27:26;2.08;;;0.60;;
49029;SDS011;43337;52.070;4.508;2024-03-02T01:29:52;2.38;;;0.50;;
49029;SDS011;43337;52.070;4.508;2024-03-02T01:32:17;2.78;;;0.52;;
49029;SDS011;43337;52.070;4.508;2024-03-02T01:34:42;2.28;;;0.55;;
49029;SDS011;43337;52.070;4.508;2024-03-02T01:37:08;1.48;;;0.50;;
49029;SDS011;43337;52.070;4.508;2024-03-02T01:39:35;1.42;;;0.30;;
49029;SDS011;43337;52.070;4.508;2024-03-02T01:42:00;1.05;;;0.43;;
49029;SDS011;43337;52.070;4.508;2024-03-02T01:44:26;1.17;;;0.40;;
49029;SDS011;43337;52.070;4.508;2024-03-02T01:46:52;1.67;;;0.50;;
49029;SDS011;43337;52.070;4.508;2024-03-02T01:49:17;2.67;;;0.73;;
49029;SDS011;43337;52.070;4.508;2024-03-02T01:51:43;2.78;;;0.82;;
49029;SDS011;43337;52.070;4.508;2024-03-02T01:54:09;2.80;;;1.00;;
49029;SDS011;43337;52.070;4.508;2024-03-02T01:56:35;3.22;;;1.58;;
49029;SDS011;43337;52.070;4.508;2024-03-02T01:59:02;3.30;;;1.40;;
49029;SDS011;43337;52.070;4.508;2024-03-02T02:01:28;5.95;;;1.40;;
49029;SDS011;43337;52.070;4.508;2024-03-02T02:03:54;4.00;;;1.92;;
49029;SDS011;43337;52.070;4.508;2024-03-02T02:06:21;5.25;;;2.30;;
49029;SDS011;43337;52.070;4.508;2024-03-02T02:08:49;5.47;;;2.60;;
49029;SDS011;43337;52.070;4.508;2024-03-02T02:11:19;5.60;;;2.15;;
49029;SDS011;43337;52.070;4.508;2024-03-02T02:13:44;6.57;;;2.67;;
49029;SDS011;43337;52.070;4.508;2024-03-02T02:16:09;5.47;;;2.30;;
49029;SDS011;43337;52.070;4.508;2024-03-02T02:18:35;7.05;;;2.33;;
49029;SDS011;43337;52.070;4.508;2024-03-02T02:21:03;5.10;;;2.22;;
49029;SDS011;43337;52.070;4.508;2024-03-02T02:23:29;5.53;;;2.83;;
49029;SDS011;43337;52.070;4.508;2024-03-02T02:25:55;5.13;;;2.28;;
49029;SDS011;43337;52.070;4.508;2024-03-02T02:28:20;4.13;;;2.20;;
49029;SDS011;43337;52.070;4.508;2024-03-02T02:30:46;3.95;;;2.08;;
49029;SDS011;43337;52.070;4.508;2024-03-02T02:33:11;4.93;;;1.90;;
49029;SDS011;43337;52.070;4.508;2024-03-02T02:35:38;3.92;;;2.13;;
49029;SDS011;43337;52.070;4.508;2024-03-02T02:38:04;3.65;;;1.88;;
49029;SDS011;43337;52.070;4.508;2024-03-02T02:40:31;5.35;;;2.30;;
49029;SDS011;43337;52.070;4.508;2024-03-02T02:42:57;3.20;;;1.70;;
49029;SDS011;43337;52.070;4.508;2024-03-02T02:45:26;3.58;;;1.40;;
49029;SDS011;43337;52.070;4.508;2024-03-02T02:47:52;6.68;;;2.50;;
49029;SDS011;43337;52.070;4.508;2024-03-02T02:50:17;3.78;;;1.55;;
49029;SDS011;43337;52.070;4.508;2024-03-02T02:52:43;2.53;;;1.25;;
49029;SDS011;43337;52.070;4.508;2024-03-02T02:55:09;5.20;;;1.55;;
49029;SDS011;43337;52.070;4.508;2024-03-02T02:57:37;5.72;;;1.45;;
49029;SDS011;43337;52.070;4.508;2024-03-02T03:00:10;3.22;;;1.30;;
49029;SDS011;43337;52.070;4.508;2024-03-02T03:02:42;6.35;;;1.73;;
49029;SDS011;43337;52.070;4.508;2024-03-02T03:05:09;7.90;;;1.83;;
49029;SDS011;43337;52.070;4.508;2024-03-02T03:07:39;3.58;;;1.55;;
49029;SDS011;43337;52.070;4.508;2024-03-02T03:10:05;4.22;;;1.45;;
49029;SDS011;43337;52.070;4.508;2024-03-02T03:12:31;3.50;;;1.25;;
49029;SDS011;43337;52.070;4.508;2024-03-02T03:14:57;2.90;;;1.40;;
49029;SDS011;43337;52.070;4.508;2024-03-02T03:17:23;6.68;;;1.42;;
49029;SDS011;43337;52.070;4.508;2024-03-02T03:19:48;4.75;;;1.65;;
49029;SDS011;43337;52.070;4.508;2024-03-02T03:22:14;4.43;;;1.50;;
49029;SDS011;43337;52.070;4.508;2024-03-02T03:24:40;5.10;;;1.58;;
49029;SDS011;43337;52.070;4.508;2024-03-02T03:27:05;3.90;;;1.83;;
49029;SDS011;43337;52.070;4.508;2024-03-02T03:29:31;2.85;;;1.20;;
49029;SDS011;43337;52.070;4.508;2024-03-02T03:31:56;3.03;;;1.35;;
49029;SDS011;43337;52.070;4.508;2024-03-02T03:34:24;4.13;;;1.20;;
49029;SDS011;43337;52.070;4.508;2024-03-02T03:36:50;3.17;;;1.30;;
49029;SDS011;43337;52.070;4.508;2024-03-02T03:39:17;3.42;;;1.45;;
49029;SDS011;43337;52.070;4.508;2024-03-02T03:41:42;5.75;;;1.70;;
49029;SDS011;43337;52.070;4.508;2024-03-02T03:44:08;3.30;;;1.50;;
49029;SDS011;43337;52.070;4.508;2024-03-02T03:46:33;3.70;;;1.75;;
49029;SDS011;43337;52.070;4.508;2024-03-02T03:49:02;2.90;;;1.27;;
49029;SDS011;43337;52.070;4.508;2024-03-02T03:51:28;3.53;;;1.50;;
49029;SDS011;43337;52.070;4.508;2024-03-02T03:53:54;3.47;;;1.33;;
49029;SDS011;43337;52.070;4.508;2024-03-02T03:56:19;4.95;;;1.33;;
49029;SDS011;43337;52.070;4.508;2024-03-02T03:58:45;4.78;;;1.63;;
49029;SDS011;43337;52.070;4.508;2024-03-02T04:01:10;2.45;;;1.23;;
49029;SDS011;43337;52.070;4.508;2024-03-02T04:03:36;3.28;;;1.70;;
49029;SDS011;43337;52.070;4.508;2024-03-02T04:06:02;4.45;;;1.45;;
49029;SDS011;43337;52.070;4.508;2024-03-02T04:08:27;3.70;;;1.30;;
49029;SDS011;43337;52.070;4.508;2024-03-02T04:10:53;2.88;;;1.25;;
49029;SDS011;43337;52.070;4.508;2024-03-02T04:13:18;3.25;;;1.65;;
49029;SDS011;43337;52.070;4.508;2024-03-02T04:15:43;4.72;;;1.17;;
49029;SDS011;43337;52.070;4.508;2024-03-02T04:18:09;4.20;;;1.50;;
49029;SDS011;43337;52.070;4.508;2024-03-02T04:20:35;3.20;;;1.65;;
49029;SDS011;43337;52.070;4.508;2024-03-02T04:23:00;4.85;;;1.63;;
49029;SDS011;43337;52.070;4.508;2024-03-02T04:25:25;5.10;;;1.52;;
49029;SDS011;43337;52.070;4.508;2024-03-02T04:27:51;5.20;;;1.77;;
49029;SDS011;43337;52.070;4.508;2024-03-02T04:30:16;3.55;;;1.40;;
49029;SDS011;43337;52.070;4.508;2024-03-02T04:32:42;2.55;;;1.23;;
49029;SDS011;43337;52.070;4.508;2024-03-02T04:35:11;2.95;;;1.52;;
49029;SDS011;43337;52.070;4.508;2024-03-02T04:37:37;5.32;;;1.50;;
49029;SDS011;43337;52.070;4.508;2024-03-02T04:40:03;5.43;;;1.35;;
49029;SDS011;43337;52.070;4.508;2024-03-02T04:42:33;2.90;;;1.02;;
49029;SDS011;43337;52.070;4.508;2024-03-02T04:44:59;4.05;;;1.30;;
49029;SDS011;43337;52.070;4.508;2024-03-02T04:47:24;4.28;;;1.20;;
49029;SDS011;43337;52.070;4.508;2024-03-02T04:49:50;4.22;;;1.65;;
49029;SDS011;43337;52.070;4.508;2024-03-02T04:52:15;4.95;;;2.15;;
49029;SDS011;43337;52.070;4.508;2024-03-02T04:54:41;4.68;;;1.23;;
49029;SDS011;43337;52.070;4.508;2024-03-02T04:57:24;5.10;;;1.20;;
49029;SDS011;43337;52.070;4.508;2024-03-02T04:59:49;5.30;;;1.77;;
49029;SDS011;43337;52.070;4.508;2024-03-02T05:02:15;3.33;;;1.40;;
49029;SDS011;43337;52.070;4.508;2024-03-02T05:04:40;4.88;;;1.30;;
49029;SDS011;43337;52.070;4.508;2024-03-02T05:07:06;3.15;;;1.10;;
49029;SDS011;43337;52.070;4.508;2024-03-02T05:09:32;3.83;;;1.60;;
49029;SDS011;43337;52.070;4.508;2024-03-02T05:11:57;3.60;;;1.40;;
49029;SDS011;43337;52.070;4.508;2024-03-02T05:14:41;3.33;;;1.33;;
49029;SDS011;43337;52.070;4.508;2024-03-02T05:17:07;3.15;;;1.20;;
49029;SDS011;43337;52.070;4.508;2024-03-02T05:19:32;3.15;;;1.00;;
49029;SDS011;43337;52.070;4.508;2024-03-02T05:21:57;6.78;;;1.20;;
49029;SDS011;43337;52.070;4.508;2024-03-02T05:24:23;4.45;;;1.17;;
49029;SDS011;43337;52.070;4.508;2024-03-02T05:26:48;2.85;;;0.90;;
49029;SDS011;43337;52.070;4.508;2024-03-02T05:29:14;3.13;;;1.02;;
49029;SDS011;43337;52.070;4.508;2024-03-02T05:31:39;3.35;;;1.23;;
49029;SDS011;43337;52.070;4.508;2024-03-02T05:34:05;3.17;;;1.30;;
49029;SDS011;43337;52.070;4.508;2024-03-02T05:36:30;2.88;;;1.20;;
49029;SDS011;43337;52.070;4.508;2024-03-02T05:38:56;3.70;;;1.20;;
49029;SDS011;43337;52.070;4.508;2024-03-02T05:41:22;2.20;;;0.93;;
49029;SDS011;43337;52.070;4.508;2024-03-02T05:43:47;2.70;;;1.13;;
49029;SDS011;43337;52.070;4.508;2024-03-02T05:46:14;3.08;;;1.35;;
49029;SDS011;43337;52.070;4.508;2024-03-02T05:48:40;2.53;;;1.05;;
49029;SDS011;43337;52.070;4.508;2024-03-02T05:51:05;4.25;;;1.00;;
49029;SDS011;43337;52.070;4.508;2024-03-02T05:53:30;4.75;;;1.42;;
49029;SDS011;43337;52.070;4.508;2024-03-02T05:55:56;5.82;;;1.55;;
49029;SDS011;43337;52.070;4.508;2024-03-02T05:58:22;4.13;;;1.00;;
49029;SDS011;43337;52.070;4.508;2024-03-02T06:01:05;3.43;;;1.10;;
49029;SDS011;43337;52.070;4.508;2024-03-02T06:03:31;2.33;;;0.93;;
49029;SDS011;43337;52.070;4.508;2024-03-02T06:05:57;3.03;;;0.98;;
49029;SDS011;43337;52.070;4.508;2024-03-02T06:08:22;2.17;;;0.70;;
49029;SDS011;43337;52.070;4.508;2024-03-02T06:10:48;3.50;;;0.70;;
49029;SDS011;43337;52.070;4.508;2024-03-02T06:13:13;2.40;;;1.13;;
49029;SDS011;43337;52.070;4.508;2024-03-02T06:15:39;2.70;;;0.80;;
49029;SDS011;43337;52.070;4.508;2024-03-02T06:18:04;3.17;;;0.90;;
49029;SDS011;43337;52.070;4.508;2024-03-02T06:20:31;5.53;;;1.08;;
49029;SDS011;43337;52.070;4.508;2024-03-02T06:22:58;1.83;;;0.98;;
49029;SDS011;43337;52.070;4.508;2024-03-02T06:25:24;2.03;;;0.60;;
49029;SDS011;43337;52.070;4.508;2024-03-02T06:27:49;3.60;;;0.85;;
49029;SDS011;43337;52.070;4.508;2024-03-02T06:30:14;2.30;;;0.70;;
49029;SDS011;43337;52.070;4.508;2024-03-02T06:32:40;3.17;;;0.93;;
49029;SDS011;43337;52.070;4.508;2024-03-02T06:35:05;2.78;;;0.80;;
49029;SDS011;43337;52.070;4.508;2024-03-02T06:37:36;2.70;;;0.85;;
49029;SDS011;43337;52.070;4.508;2024-03-02T06:40:03;1.88;;;0.70;;
49029;SDS011;43337;52.070;4.508;2024-03-02T06:42:28;1.40;;;0.60;;
49029;SDS011;43337;52.070;4.508;2024-03-02T06:44:58;4.97;;;0.70;;
49029;SDS011;43337;52.070;4.508;2024-03-02T06:47:23;5.32;;;0.75;;
49029;SDS011;43337;52.070;4.508;2024-03-02T06:49:49;1.95;;;0.75;;
49029;SDS011;43337;52.070;4.508;2024-03-02T06:52:14;3.20;;;0.80;;
49029;SDS011;43337;52.070;4.508;2024-03-02T06:54:41;8.00;;;1.15;;
49029;SDS011;43337;52.070;4.508;2024-03-02T06:57:06;1.60;;;0.70;;
49029;SDS011;43337;52.070;4.508;2024-03-02T06:59:32;6.05;;;1.30;;
49029;SDS011;43337;52.070;4.508;2024-03-02T07:01:58;5.93;;;0.88;;
49029;SDS011;43337;52.070;4.508;2024-03-02T07:04:24;2.65;;;0.68;;
49029;SDS011;43337;52.070;4.508;2024-03-02T07:06:49;4.85;;;0.63;;
49029;SDS011;43337;52.070;4.508;2024-03-02T07:09:14;2.60;;;0.60;;
49029;SDS011;43337;52.070;4.508;2024-03-02T07:11:40;5.55;;;1.60;;
49029;SDS011;43337;52.070;4.508;2024-03-02T07:14:05;5.20;;;0.90;;
49029;SDS011;43337;52.070;4.508;2024-03-02T07:16:31;7.50;;;0.75;;
49029;SDS011;43337;52.070;4.508;2024-03-02T07:18:58;5.20;;;0.88;;
49029;SDS011;43337;52.070;4.508;2024-03-02T07:21:24;5.47;;;1.00;;
49029;SDS011;43337;52.070;4.508;2024-03-02T07:23:51;9.60;;;1.70;;
49029;SDS011;43337;52.070;4.508;2024-03-02T07:26:16;3.88;;;0.90;;
49029;SDS011;43337;52.070;4.508;2024-03-02T07:28:43;1.45;;;0.63;;
49029;SDS011;43337;52.070;4.508;2024-03-02T07:31:10;3.00;;;0.80;;
49029;SDS011;43337;52.070;4.508;2024-03-02T07:33:35;4.32;;;0.80;;
49029;SDS011;43337;52.070;4.508;2024-03-02T07:36:00;3.08;;;0.60;;
49029;SDS011;43337;52.070;4.508;2024-03-02T07:38:28;3.78;;;0.70;;
49029;SDS011;43337;52.070;4.508;2024-03-02T07:40:54;2.78;;;0.73;;
49029;SDS011;43337;52.070;4.508;2024-03-02T07:43:20;3.00;;;0.60;;
49029;SDS011;43337;52.070;4.508;2024-03-02T07:45:46;2.65;;;0.60;;
49029;SDS011;43337;52.070;4.508;2024-03-02T07:48:12;5.47;;;1.98;;
49029;SDS011;43337;52.070;4.508;2024-03-02T07:50:37;4.57;;;0.80;;
49029;SDS011;43337;52.070;4.508;2024-03-02T07:53:04;2.85;;;0.75;;
49029;SDS011;43337;52.070;4.508;2024-03-02T07:55:30;2.08;;;0.77;;
49029;SDS011;43337;52.070;4.508;2024-03-02T07:57:56;2.72;;;0.98;;
49029;SDS011;43337;52.070;4.508;2024-03-02T08:00:22;3.58;;;0.90;;
49029;SDS011;43337;52.070;4.508;2024-03-02T08:02:48;3.40;;;1.10;;
49029;SDS011;43337;52.070;4.508;2024-03-02T08:05:14;8.95;;;1.58;;
49029;SDS011;43337;52.070;4.508;2024-03-02T08:07:40;6.45;;;0.95;;
49029;SDS011;43337;52.070;4.508;2024-03-02T08:10:07;5.10;;;0.80;;
49029;SDS011;43337;52.070;4.508;2024-03-02T08:12:35;1.73;;;0.60;;
49029;SDS011;43337;52.070;4.508;2024-03-02T08:15:00;3.45;;;0.70;;
49029;SDS011;43337;52.070;4.508;2024-03-02T08:17:25;2.80;;;0.60;;
49029;SDS011;43337;52.070;4.508;2024-03-02T08:19:51;3.80;;;0.90;;
49029;SDS011;43337;52.070;4.508;2024-03-02T08:22:16;1.55;;;0.95;;
49029;SDS011;43337;52.070;4.508;2024-03-02T08:24:42;3.45;;;0.95;;
49029;SDS011;43337;52.070;4.508;2024-03-02T08:27:08;4.55;;;1.25;;
49029;SDS011;43337;52.070;4.508;2024-03-02T08:29:34;3.75;;;1.20;;
49029;SDS011;43337;52.070;4.508;2024-03-02T08:31:59;1.90;;;0.65;;
49029;SDS011;43337;52.070;4.508;2024-03-02T08:34:25;5.45;;;1.50;;
49029;SDS011;43337;52.070;4.508;2024-03-02T08:36:50;4.72;;;0.98;;
49029;SDS011;43337;52.070;4.508;2024-03-02T08:39:16;3.38;;;1.05;;
49029;SDS011;43337;52.070;4.508;2024-03-02T08:41:45;3.70;;;1.08;;
49029;SDS011;43337;52.070;4.508;2024-03-02T08:44:11;6.35;;;1.00;;
49029;SDS011;43337;52.070;4.508;2024-03-02T08:46:40;3.80;;;0.80;;
49029;SDS011;43337;52.070;4.508;2024-03-02T08:49:06;4.55;;;0.85;;
49029;SDS011;43337;52.070;4.508;2024-03-02T08:51:32;4.40;;;0.70;;
49029;SDS011;43337;52.070;4.508;2024-03-02T08:53:58;5.57;;;1.23;;
49029;SDS011;43337;52.070;4.508;2024-03-02T08:56:24;10.70;;;1.83;;
49029;SDS011;43337;52.070;4.508;2024-03-02T08:58:50;2.33;;;0.60;;
49029;SDS011;43337;52.070;4.508;2024-03-02T09:01:16;3.90;;;0.73;;
49029;SDS011;43337;52.070;4.508;2024-03-02T09:03:42;6.35;;;0.93;;
49029;SDS011;43337;52.070;4.508;2024-03-02T09:06:12;2.92;;;0.82;;
49029;SDS011;43337;52.070;4.508;2024-03-02T09:08:39;5.70;;;0.70;;
49029;SDS011;43337;52.070;4.508;2024-03-02T09:11:05;6.60;;;1.25;;
49029;SDS011;43337;52.070;4.508;2024-03-02T09:13:32;4.20;;;1.00;;
49029;SDS011;43337;52.070;4.508;2024-03-02T09:15:57;3.53;;;0.80;;
49029;SDS011;43337;52.070;4.508;2024-03-02T09:18:23;9.48;;;1.30;;
49029;SDS011;43337;52.070;4.508;2024-03-02T09:20:48;3.33;;;0.80;;
49029;SDS011;43337;52.070;4.508;2024-03-02T09:23:14;6.57;;;0.98;;
49029;SDS011;43337;52.070;4.508;2024-03-02T09:25:39;3.63;;;0.85;;
49029;SDS011;43337;52.070;4.508;2024-03-02T09:28:05;4.72;;;0.90;;
49029;SDS011;43337;52.070;4.508;2024-03-02T09:30:31;3.45;;;0.75;;
49029;SDS011;43337;52.070;4.508;2024-03-02T09:32:58;4.05;;;0.80;;
49029;SDS011;43337;52.070;4.508;2024-03-02T09:35:24;3.97;;;1.20;;
49029;SDS011;43337;52.070;4.508;2024-03-02T09:37:50;3.58;;;0.68;;
49029;SDS011;43337;52.070;4.508;2024-03-02T09:40:16;4.10;;;0.85;;
49029;SDS011;43337;52.070;4.508;2024-03-02T09:42:42;4.32;;;1.00;;
49029;SDS011;43337;52.070;4.508;2024-03-02T09:45:09;5.47;;;1.15;;
49029;SDS011;43337;52.070;4.508;2024-03-02T09:47:35;7.93;;;1.65;;
49029;SDS011;43337;52.070;4.508;2024-03-02T09:50:01;5.72;;;1.42;;
49029;SDS011;43337;52.070;4.508;2024-03-02T09:52:26;6.25;;;0.85;;
49029;SDS011;43337;52.070;4.508;2024-03-02T09:54:52;5.88;;;1.35;;
49029;SDS011;43337;52.070;4.508;2024-03-02T09:57:18;3.92;;;0.90;;
49029;SDS011;43337;52.070;4.508;2024-03-02T09:59:43;2.15;;;0.63;;
49029;SDS011;43337;52.070;4.508;2024-03-02T10:02:10;3.78;;;0.75;;
49029;SDS011;43337;52.070;4.508;2024-03-02T10:04:35;2.88;;;0.60;;
49029;SDS011;43337;52.070;4.508;2024-03-02T10:09:37;8.35;;;1.23;;
49029;SDS011;43337;52.070;4.508;2024-03-02T10:12:07;3.58;;;0.60;;
49029;SDS011;43337;52.070;4.508;2024-03-02T10:14:33;5.93;;;0.82;;
49029;SDS011;43337;52.070;4.508;2024-03-02T10:17:03;4.10;;;0.95;;
49029;SDS011;43337;52.070;4.508;2024-03-02T10:19:31;2.75;;;0.60;;
49029;SDS011;43337;52.070;4.508;2024-03-02T10:21:58;6.38;;;0.85;;
49029;SDS011;43337;52.070;4.508;2024-03-02T10:24:24;7.63;;;0.95;;
49029;SDS011;43337;52.070;4.508;2024-03-02T10:26:50;4.70;;;1.02;;
49029;SDS011;43337;52.070;4.508;2024-03-02T10:29:16;6.15;;;0.75;;
49029;SDS011;43337;52.070;4.508;2024-03-02T10:31:45;5.20;;;0.90;;
49029;SDS011;43337;52.070;4.508;2024-03-02T10:34:13;5.75;;;0.98;;
49029;SDS011;43337;52.070;4.508;2024-03-02T10:36:42;6.25;;;0.98;;
49029;SDS011;43337;52.070;4.508;2024-03-02T10:39:10;5.38;;;1.20;;
49029;SDS011;43337;52.070;4.508;2024-03-02T10:41:38;4.78;;;1.00;;
49029;SDS011;43337;52.070;4.508;2024-03-02T10:44:04;5.15;;;0.85;;
49029;SDS011;43337;52.070;4.508;2024-03-02T10:46:35;4.10;;;0.80;;
49029;SDS011;43337;52.070;4.508;2024-03-02T10:49:02;6.93;;;1.33;;
49029;SDS011;43337;52.070;4.508;2024-03-02T10:51:30;4.80;;;0.68;;
49029;SDS011;43337;52.070;4.508;2024-03-02T10:53:56;5.28;;;0.85;;
49029;SDS011;43337;52.070;4.508;2024-03-02T10:56:38;4.28;;;0.50;;
49029;SDS011;43337;52.070;4.508;2024-03-02T10:59:13;5.97;;;1.10;;
49029;SDS011;43337;52.070;4.508;2024-03-02T11:01:48;2.97;;;0.65;;
49029;SDS011;43337;52.070;4.508;2024-03-02T11:04:15;3.22;;;0.70;;
49029;SDS011;43337;52.070;4.508;2024-03-02T11:06:48;6.03;;;1.02;;
49029;SDS011;43337;52.070;4.508;2024-03-02T11:09:21;4.70;;;1.00;;
49029;SDS011;43337;52.070;4.508;2024-03-02T11:11:54;8.83;;;1.30;;
49029;SDS011;43337;52.070;4.508;2024-03-02T11:14:26;4.63;;;0.70;;
49029;SDS011;43337;52.070;4.508;2024-03-02T11:16:56;3.10;;;0.70;;
49029;SDS011;43337;52.070;4.508;2024-03-02T11:19:22;3.50;;;1.55;;
49029;SDS011;43337;52.070;4.508;2024-03-02T11:21:49;5.90;;;0.95;;
49029;SDS011;43337;52.070;4.508;2024-03-02T11:26:46;9.45;;;1.02;;
49029;SDS011;43337;52.070;4.508;2024-03-02T11:32:00;3.45;;;0.82;;
49029;SDS011;43337;52.070;4.508;2024-03-02T11:37:01;1.83;;;0.60;;
49029;SDS011;43337;52.070;4.508;2024-03-02T11:39:29;3.45;;;0.55;;
49029;SDS011;43337;52.070;4.508;2024-03-02T11:41:55;2.60;;;0.65;;
49029;SDS011;43337;52.070;4.508;2024-03-02T11:44:26;5.63;;;0.90;;
49029;SDS011;43337;52.070;4.508;2024-03-02T11:46:59;3.50;;;0.73;;
49029;SDS011;43337;52.070;4.508;2024-03-02T11:52:05;5.68;;;1.00;;
49029;SDS011;43337;52.070;4.508;2024-03-02T11:54:36;2.65;;;0.77;;
49029;SDS011;43337;52.070;4.508;2024-03-02T11:57:05;3.00;;;0.68;;
49029;SDS011;43337;52.070;4.508;2024-03-02T11:59:31;3.47;;;0.77;;
49029;SDS011;43337;52.070;4.508;2024-03-02T12:01:57;4.25;;;0.80;;
49029;SDS011;43337;52.070;4.508;2024-03-02T12:04:23;2.83;;;0.60;;
49029;SDS011;43337;52.070;4.508;2024-03-02T12:06:56;5.93;;;1.35;;
49029;SDS011;43337;52.070;4.508;2024-03-02T12:09:29;6.00;;;0.75;;
49029;SDS011;43337;52.070;4.508;2024-03-02T12:12:04;3.17;;;0.90;;
49029;SDS011;43337;52.070;4.508;2024-03-02T12:14:35;6.03;;;1.30;;
49029;SDS011;43337;52.070;4.508;2024-03-02T12:17:04;5.40;;;1.10;;
49029;SDS011;43337;52.070;4.508;2024-03-02T12:19:31;5.03;;;0.80;;
49029;SDS011;43337;52.070;4.508;2024-03-02T12:21:58;5.57;;;0.77;;
49029;SDS011;43337;52.070;4.508;2024-03-02T12:24:26;4.35;;;0.70;;
49029;SDS011;43337;52.070;4.508;2024-03-02T12:26:52;4.88;;;0.88;;
49029;SDS011;43337;52.070;4.508;2024-03-02T12:29:18;5.55;;;0.85;;
49029;SDS011;43337;52.070;4.508;2024-03-02T12:31:47;6.47;;;0.80;;
49029;SDS011;43337;52.070;4.508;2024-03-02T12:34:13;5.10;;;0.98;;
49029;SDS011;43337;52.070;4.508;2024-03-02T12:36:40;2.75;;;1.40;;
49029;SDS011;43337;52.070;4.508;2024-03-02T12:39:07;4.47;;;0.80;;
49029;SDS011;43337;52.070;4.508;2024-03-02T12:41:35;5.88;;;0.65;;
49029;SDS011;43337;52.070;4.508;2024-03-02T12:44:01;5.75;;;0.98;;
49029;SDS011;43337;52.070;4.508;2024-03-02T12:46:26;8.20;;;1.08;;
49029;SDS011;43337;52.070;4.508;2024-03-02T12:48:52;2.20;;;0.60;;
49029;SDS011;43337;52.070;4.508;2024-03-02T12:51:18;4.35;;;0.73;;
49029;SDS011;43337;52.070;4.508;2024-03-02T12:53:43;5.28;;;0.95;;
49029;SDS011;43337;52.070;4.508;2024-03-02T12:56:09;5.30;;;1.05;;
49029;SDS011;43337;52.070;4.508;2024-03-02T12:58:40;7.18;;;0.80;;
49029;SDS011;43337;52.070;4.508;2024-03-02T13:01:07;3.53;;;1.02;;
49029;SDS011;43337;52.070;4.508;2024-03-02T13:03:39;5.07;;;0.80;;
49029;SDS011;43337;52.070;4.508;2024-03-02T13:06:05;6.15;;;0.85;;
49029;SDS011;43337;52.070;4.508;2024-03-02T13:08:32;3.63;;;0.75;;
49029;SDS011;43337;52.070;4.508;2024-03-02T13:10:58;5.25;;;1.05;;
49029;SDS011;43337;52.070;4.508;2024-03-02T13:13:24;3.35;;;1.10;;
49029;SDS011;43337;52.070;4.508;2024-03-02T13:15:50;5.80;;;0.75;;
49029;SDS011;43337;52.070;4.508;2024-03-02T13:18:20;6.78;;;1.65;;
49029;SDS011;43337;52.070;4.508;2024-03-02T13:20:46;4.40;;;1.38;;
49029;SDS011;43337;52.070;4.508;2024-03-02T13:23:12;2.78;;;0.70;;
49029;SDS011;43337;52.070;4.508;2024-03-02T13:25:37;3.80;;;0.70;;
49029;SDS011;43337;52.070;4.508;2024-03-02T13:28:03;4.90;;;0.98;;
49029;SDS011;43337;52.070;4.508;2024-03-02T13:30:28;3.60;;;0.80;;
49029;SDS011;43337;52.070;4.508;2024-03-02T13:32:54;4.28;;;0.80;;
49029;SDS011;43337;52.070;4.508;2024-03-02T13:35:19;4.35;;;1.27;;
49029;SDS011;43337;52.070;4.508;2024-03-02T13:37:45;4.28;;;1.00;;
49029;SDS011;43337;52.070;4.508;2024-03-02T13:40:10;2.92;;;0.60;;
49029;SDS011;43337;52.070;4.508;2024-03-02T13:42:41;3.10;;;1.02;;
49029;SDS011;43337;52.070;4.508;2024-03-02T13:45:07;4.72;;;0.90;;
49029;SDS011;43337;52.070;4.508;2024-03-02T13:47:33;10.98;;;1.75;;
49029;SDS011;43337;52.070;4.508;2024-03-02T13:49:58;2.20;;;0.45;;
49029;SDS011;43337;52.070;4.508;2024-03-02T13:52:23;3.45;;;0.73;;
49029;SDS011;43337;52.070;4.508;2024-03-02T13:54:50;4.45;;;0.75;;
49029;SDS011;43337;52.070;4.508;2024-03-02T13:57:17;4.78;;;0.98;;
49029;SDS011;43337;52.070;4.508;2024-03-02T13:59:44;3.30;;;0.95;;
49029;SDS011;43337;52.070;4.508;2024-03-02T14:02:11;4.45;;;0.88;;
49029;SDS011;43337;52.070;4.508;2024-03-02T14:04:37;3.85;;;0.75;;
49029;SDS011;43337;52.070;4.508;2024-03-02T14:07:03;3.17;;;0.70;;
49029;SDS011;43337;52.070;4.508;2024-03-02T14:09:33;2.85;;;0.73;;
49029;SDS011;43337;52.070;4.508;2024-03-02T14:11:58;1.48;;;0.40;;
49029;SDS011;43337;52.070;4.508;2024-03-02T14:14:25;2.25;;;0.50;;
49029;SDS011;43337;52.070;4.508;2024-03-02T14:16:52;4.88;;;0.68;;
49029;SDS011;43337;52.070;4.508;2024-03-02T14:19:18;7.57;;;0.90;;
49029;SDS011;43337;52.070;4.508;2024-03-02T14:21:43;5.82;;;0.70;;
49029;SDS011;43337;52.070;4.508;2024-03-02T14:24:09;3.38;;;0.65;;
49029;SDS011;43337;52.070;4.508;2024-03-02T14:26:36;4.63;;;0.90;;
49029;SDS011;43337;52.070;4.508;2024-03-02T14:29:02;6.93;;;1.30;;
49029;SDS011;43337;52.070;4.508;2024-03-02T14:31:28;7.20;;;0.68;;
49029;SDS011;43337;52.070;4.508;2024-03-02T14:33:54;3.45;;;0.70;;
49029;SDS011;43337;52.070;4.508;2024-03-02T14:36:20;7.97;;;0.85;;
49029;SDS011;43337;52.070;4.508;2024-03-02T14:38:45;4.35;;;0.90;;
49029;SDS011;43337;52.070;4.508;2024-03-02T14:41:11;3.20;;;0.80;;
49029;SDS011;43337;52.070;4.508;2024-03-02T14:43:37;4.47;;;0.82;;
49029;SDS011;43337;52.070;4.508;2024-03-02T14:46:03;3.03;;;0.60;;
49029;SDS011;43337;52.070;4.508;2024-03-02T14:48:28;7.80;;;0.90;;
49029;SDS011;43337;52.070;4.508;2024-03-02T14:50:54;3.00;;;0.50;;
49029;SDS011;43337;52.070;4.508;2024-03-02T14:53:19;3.17;;;0.95;;
49029;SDS011;43337;52.070;4.508;2024-03-02T14:55:45;5.43;;;0.75;;
49029;SDS011;43337;52.070;4.508;2024-03-02T14:58:11;5.22;;;0.70;;
49029;SDS011;43337;52.070;4.508;2024-03-02T15:00:36;2.78;;;0.95;;
49029;SDS011;43337;52.070;4.508;2024-03-02T15:03:01;3.30;;;0.80;;